createdAt,value
2023-03-06T00:00:05.208Z,3.52
2023-03-06T00:00:56.556Z,3.49
2023-03-06T00:01:28.449Z,3.48
2023-03-06T00:02:00.145Z,3.49
2023-03-06T00:02:32.187Z,3.43
2023-03-06T00:03:04.659Z,3.44
2023-03-06T00:03:36.445Z,3.38
2023-03-06T00:04:08.619Z,3.38
2023-03-06T00:04:40.604Z,3.35
2023-03-06T00:05:13.951Z,3.33
2023-03-06T00:05:46.031Z,3.37
2023-03-06T00:06:17.793Z,3.33
2023-03-06T00:06:49.550Z,3.34
2023-03-06T00:07:21.266Z,3.31
2023-03-06T00:07:52.985Z,3.29
2023-03-06T00:08:26.980Z,3.25
2023-03-06T00:08:58.655Z,3.25
2023-03-06T00:09:30.343Z,3.21
2023-03-06T00:10:02.052Z,3.15
2023-03-06T00:10:34.797Z,3.20
2023-03-06T00:11:06.452Z,3.17
2023-03-06T00:11:38.244Z,3.16
2023-03-06T00:12:10.222Z,3.16
2023-03-06T00:12:42.765Z,3.15
2023-03-06T00:13:19.261Z,3.16
2023-03-06T00:13:51.004Z,3.14
2023-03-06T00:14:22.685Z,3.11
2023-03-06T00:14:54.396Z,3.11
2023-03-06T00:15:27.314Z,3.06
2023-03-06T00:16:01.069Z,3.08
2023-03-06T00:16:32.913Z,3.08
2023-03-06T00:17:04.718Z,3.06
2023-03-06T00:17:37.243Z,3.04
2023-03-06T00:18:09.317Z,3.03
2023-03-06T00:18:41.761Z,2.95
2023-03-06T00:19:13.527Z,3.01
2023-03-06T00:19:45.211Z,2.97
2023-03-06T00:20:17.771Z,2.95
2023-03-06T00:20:49.463Z,2.93
2023-03-06T00:21:21.183Z,2.93
2023-03-06T00:21:52.899Z,2.91
2023-03-06T00:22:24.636Z,2.89
2023-03-06T00:22:57.054Z,2.87
2023-03-06T00:23:29.184Z,2.88
2023-03-06T00:24:00.854Z,2.87
2023-03-06T00:24:32.603Z,2.84
2023-03-06T00:25:05.233Z,2.84
2023-03-06T00:25:41.738Z,2.77
2023-03-06T00:26:13.428Z,2.76
2023-03-06T00:27:03.449Z,2.74
2023-03-06T00:27:35.132Z,2.70
2023-03-06T00:28:06.833Z,2.69
2023-03-06T00:28:38.822Z,2.66
2023-03-06T00:29:10.824Z,2.69
2023-03-06T00:29:42.614Z,2.65
2023-03-06T00:30:20.383Z,2.64
2023-03-06T00:30:52.171Z,2.64
2023-03-06T00:31:23.880Z,2.60
2023-03-06T00:31:55.578Z,2.57
2023-03-06T00:32:28.598Z,2.56
2023-03-06T00:33:00.365Z,2.57
2023-03-06T00:33:32.055Z,2.56
2023-03-06T00:34:04.277Z,2.53
2023-03-06T00:34:35.977Z,2.55
2023-03-06T00:35:08.089Z,2.49
2023-03-06T00:35:40.843Z,2.45
2023-03-06T00:36:12.585Z,2.49
2023-03-06T00:36:44.298Z,2.50
2023-03-06T00:37:16.293Z,2.43
2023-03-06T00:37:48.536Z,2.42
2023-03-06T00:38:20.306Z,2.40
2023-03-06T00:38:52.004Z,2.34
2023-03-06T00:39:23.787Z,2.38
2023-03-06T00:39:55.467Z,2.35
2023-03-06T00:40:27.313Z,2.34
2023-03-06T00:40:59.148Z,2.32
2023-03-06T00:41:30.807Z,2.31
2023-03-06T00:42:02.528Z,2.31
2023-03-06T00:42:34.197Z,2.32
2023-03-06T00:43:05.954Z,2.29
2023-03-06T00:43:37.733Z,2.23
2023-03-06T00:44:09.387Z,2.19
2023-03-06T00:44:41.302Z,2.18
2023-03-06T00:45:13.335Z,2.22
2023-03-06T00:45:45.092Z,2.21
2023-03-06T00:46:16.838Z,2.18
2023-03-06T00:46:48.493Z,2.15
2023-03-06T00:47:20.237Z,2.08
2023-03-06T00:47:51.917Z,2.11
2023-03-06T00:48:23.641Z,2.09
2023-03-06T00:48:55.366Z,2.09
2023-03-06T00:49:27.328Z,2.02
2023-03-06T00:50:01.521Z,2.05
2023-03-06T00:50:34.117Z,2.05
2023-03-06T00:51:07.068Z,2.05
2023-03-06T00:51:38.768Z,1.97
2023-03-06T00:52:10.741Z,2.00
2023-03-06T00:52:42.600Z,1.92
2023-03-06T00:53:14.293Z,1.92
2023-03-06T00:53:46.048Z,1.92
2023-03-06T00:54:17.750Z,1.91
2023-03-06T00:54:49.510Z,1.89
2023-03-06T00:55:21.201Z,1.90
2023-03-06T00:55:52.975Z,1.87
2023-03-06T00:56:25.245Z,1.82
2023-03-06T00:56:56.991Z,1.82
2023-03-06T00:57:28.645Z,1.81
2023-03-06T00:58:00.335Z,1.81
2023-03-06T00:58:32.029Z,1.81
2023-03-06T00:59:03.721Z,1.85
2023-03-06T00:59:35.853Z,1.82
2023-03-06T01:00:09.128Z,1.84
2023-03-06T01:00:41.105Z,1.82
2023-03-06T01:01:13.925Z,1.86
2023-03-06T01:01:45.805Z,1.89
2023-03-06T01:02:17.540Z,1.83
2023-03-06T01:02:49.315Z,1.90
2023-03-06T01:03:22.082Z,1.90
2023-03-06T01:03:53.741Z,1.89
2023-03-06T01:04:26.019Z,1.90
2023-03-06T01:04:58.041Z,1.90
2023-03-06T01:05:31.078Z,1.94
2023-03-06T01:06:02.789Z,1.96
2023-03-06T01:06:34.473Z,1.98
2023-03-06T01:07:06.292Z,1.92
2023-03-06T01:07:38.020Z,2.02
2023-03-06T01:08:10.039Z,2.01
2023-03-06T01:08:41.724Z,2.02
2023-03-06T01:09:13.745Z,2.02
2023-03-06T01:09:45.413Z,2.04
2023-03-06T01:10:17.180Z,2.05
2023-03-06T01:10:48.933Z,2.06
2023-03-06T01:11:20.828Z,2.09
2023-03-06T01:11:52.602Z,2.08
2023-03-06T01:12:24.513Z,2.07
2023-03-06T01:12:56.309Z,2.08
2023-03-06T01:13:28.109Z,2.08
2023-03-06T01:13:59.895Z,2.09
2023-03-06T01:14:32.073Z,2.07
2023-03-06T01:15:05.210Z,2.12
2023-03-06T01:15:37.390Z,2.14
2023-03-06T01:16:14.937Z,2.12
2023-03-06T01:16:47.791Z,2.19
2023-03-06T01:17:19.473Z,2.20
2023-03-06T01:17:54.865Z,2.17
2023-03-06T01:18:26.602Z,2.17
2023-03-06T01:18:58.765Z,2.18
2023-03-06T01:19:30.740Z,2.20
2023-03-06T01:20:02.675Z,2.21
2023-03-06T01:20:34.620Z,2.24
2023-03-06T01:21:07.097Z,2.23
2023-03-06T01:21:38.989Z,2.23
2023-03-06T01:22:10.676Z,2.17
2023-03-06T01:22:42.677Z,2.22
2023-03-06T01:23:14.366Z,2.22
2023-03-06T01:23:46.200Z,2.24
2023-03-06T01:24:17.857Z,2.26
2023-03-06T01:24:49.530Z,2.31
2023-03-06T01:25:21.475Z,2.30
2023-03-06T01:25:53.179Z,2.30
2023-03-06T01:26:24.880Z,2.28
2023-03-06T01:26:56.633Z,2.27
2023-03-06T01:27:28.380Z,2.28
2023-03-06T01:28:00.118Z,2.29
2023-03-06T01:28:34.026Z,2.24
2023-03-06T01:29:06.447Z,2.19
2023-03-06T01:29:38.149Z,2.25
2023-03-06T01:30:10.251Z,2.24
2023-03-06T01:30:42.233Z,2.27
2023-03-06T01:31:14.025Z,2.29
2023-03-06T01:31:45.780Z,2.31
2023-03-06T01:32:17.628Z,2.29
2023-03-06T01:32:49.379Z,2.24
2023-03-06T01:33:21.276Z,2.23
2023-03-06T01:33:53.408Z,2.34
2023-03-06T01:34:25.145Z,2.31
2023-03-06T01:34:56.915Z,2.27
2023-03-06T01:35:28.687Z,2.24
2023-03-06T01:36:00.599Z,2.27
2023-03-06T01:36:32.318Z,2.29
2023-03-06T01:37:04.017Z,2.35
2023-03-06T01:37:37.342Z,2.34
2023-03-06T01:38:11.576Z,2.33
2023-03-06T01:38:43.570Z,2.33
2023-03-06T01:39:15.288Z,2.29
2023-03-06T01:39:47.069Z,2.31
2023-03-06T01:40:18.803Z,2.32
2023-03-06T01:40:50.500Z,2.32
2023-03-06T01:41:22.245Z,2.32
2023-03-06T01:41:54.289Z,2.32
2023-03-06T01:42:26.018Z,2.31
2023-03-06T01:42:57.674Z,2.32
2023-03-06T01:43:34.717Z,2.34
2023-03-06T01:44:06.440Z,2.32
2023-03-06T01:45:02.231Z,2.35
2023-03-06T01:45:33.891Z,2.33
2023-03-06T01:46:24.254Z,2.35
2023-03-06T01:46:55.967Z,2.33
2023-03-06T01:47:27.920Z,2.31
2023-03-06T01:47:59.585Z,2.28
2023-03-06T01:48:31.365Z,2.27
2023-03-06T01:49:12.165Z,2.29
2023-03-06T01:49:43.865Z,2.29
2023-03-06T01:50:15.958Z,2.29
2023-03-06T01:50:48.835Z,2.25
2023-03-06T01:51:21.705Z,2.27
2023-03-06T01:52:03.607Z,2.30
2023-03-06T01:52:43.369Z,2.24
2023-03-06T01:53:15.744Z,2.29
2023-03-06T01:53:50.528Z,2.28
2023-03-06T01:54:29.535Z,2.32
2023-03-06T01:55:10.739Z,2.29
2023-03-06T01:55:42.918Z,2.28
2023-03-06T01:56:15.819Z,2.32
2023-03-06T01:56:50.486Z,2.32
2023-03-06T01:57:26.804Z,2.32
2023-03-06T01:58:03.736Z,2.36
2023-03-06T01:58:36.403Z,2.40
2023-03-06T01:59:08.325Z,2.43
2023-03-06T01:59:42.618Z,2.47
2023-03-06T02:00:18.507Z,2.47
2023-03-06T02:00:50.294Z,2.51
2023-03-06T02:01:22.158Z,2.55
2023-03-06T02:01:55.306Z,2.59
2023-03-06T02:02:27.194Z,2.63
2023-03-06T02:03:10.132Z,2.60
2023-03-06T02:03:43.487Z,2.68
2023-03-06T02:04:17.236Z,2.70
2023-03-06T02:04:49.030Z,2.77
2023-03-06T02:05:21.042Z,2.82
2023-03-06T02:05:53.204Z,2.85
2023-03-06T02:06:25.198Z,2.86
2023-03-06T02:07:00.526Z,2.84
2023-03-06T02:07:33.665Z,2.86
2023-03-06T02:08:06.881Z,2.89
2023-03-06T02:08:39.743Z,2.94
2023-03-06T02:09:14.163Z,2.93
2023-03-06T02:09:46.330Z,2.93
2023-03-06T02:10:19.572Z,2.96
2023-03-06T02:11:17.658Z,2.98
2023-03-06T02:11:49.437Z,2.95
2023-03-06T02:12:23.019Z,2.99
2023-03-06T02:12:54.914Z,2.99
2023-03-06T02:13:26.776Z,2.99
2023-03-06T02:13:58.637Z,2.91
2023-03-06T02:14:30.539Z,2.96
2023-03-06T02:15:02.443Z,2.99
2023-03-06T02:15:34.172Z,3.00
2023-03-06T02:16:07.248Z,2.95
2023-03-06T02:16:41.931Z,2.98
2023-03-06T02:17:17.040Z,2.96
2023-03-06T02:17:51.420Z,2.99
2023-03-06T02:18:23.144Z,2.99
2023-03-06T02:18:55.547Z,2.99
2023-03-06T02:19:51.531Z,3.01
2023-03-06T02:20:33.633Z,3.00
2023-03-06T02:21:09.509Z,3.01
2023-03-06T02:21:41.268Z,3.03
2023-03-06T02:22:12.987Z,3.01
2023-03-06T02:23:03.157Z,3.04
2023-03-06T02:23:58.513Z,3.02
2023-03-06T02:25:03.420Z,3.04
2023-03-06T02:25:42.053Z,3.06
2023-03-06T02:26:15.020Z,3.07
2023-03-06T02:26:48.405Z,3.08
2023-03-06T02:27:21.247Z,3.00
2023-03-06T02:27:52.923Z,3.07
2023-03-06T02:28:25.157Z,3.05
2023-03-06T02:28:59.278Z,3.01
2023-03-06T02:29:31.813Z,3.02
2023-03-06T02:30:09.513Z,3.00
2023-03-06T02:30:45.417Z,3.05
2023-03-06T02:31:27.375Z,3.02
2023-03-06T02:31:59.245Z,2.99
2023-03-06T02:32:31.054Z,3.00
2023-03-06T02:33:04.357Z,3.02
2023-03-06T02:33:36.101Z,3.01
2023-03-06T02:34:17.058Z,3.02
2023-03-06T02:34:55.990Z,3.00
2023-03-06T02:35:31.405Z,3.04
2023-03-06T02:36:06.091Z,3.05
2023-03-06T02:36:43.346Z,3.07
2023-03-06T02:37:15.253Z,3.05
2023-03-06T02:37:47.084Z,3.04
2023-03-06T02:38:22.544Z,3.06
2023-03-06T02:38:54.585Z,3.10
2023-03-06T02:39:31.818Z,3.07
2023-03-06T02:40:09.459Z,3.04
2023-03-06T02:40:44.785Z,3.12
2023-03-06T02:41:16.742Z,3.12
2023-03-06T02:41:48.594Z,3.10
2023-03-06T02:42:24.348Z,3.13
2023-03-06T02:42:58.505Z,3.12
2023-03-06T02:43:35.036Z,3.07
2023-03-06T02:44:06.748Z,3.15
2023-03-06T02:44:38.663Z,2.99
2023-03-06T02:45:14.224Z,3.15
2023-03-06T02:45:48.718Z,3.07
2023-03-06T02:46:20.734Z,3.15
2023-03-06T02:46:52.466Z,3.17
2023-03-06T02:47:24.154Z,3.11
2023-03-06T02:47:55.834Z,3.18
2023-03-06T02:48:27.657Z,3.16
2023-03-06T02:48:59.418Z,3.18
2023-03-06T02:49:31.102Z,3.21
2023-03-06T02:50:02.846Z,3.23
2023-03-06T02:50:34.819Z,3.21
2023-03-06T02:51:06.898Z,3.20
2023-03-06T02:51:38.587Z,3.22
2023-03-06T02:52:10.299Z,3.16
2023-03-06T02:52:41.957Z,3.22
2023-03-06T02:53:16.773Z,3.13
2023-03-06T02:53:48.454Z,3.18
2023-03-06T02:54:20.158Z,3.23
2023-03-06T02:54:51.892Z,3.22
2023-03-06T02:55:23.970Z,3.24
2023-03-06T02:55:55.685Z,3.24
2023-03-06T02:56:28.512Z,3.21
2023-03-06T02:57:00.203Z,3.22
2023-03-06T02:57:31.861Z,3.19
2023-03-06T02:58:04.073Z,3.25
2023-03-06T02:58:35.774Z,3.25
2023-03-06T02:59:07.520Z,3.21
2023-03-06T02:59:39.274Z,3.19
2023-03-06T03:00:11.819Z,3.22
2023-03-06T03:00:43.546Z,3.21
2023-03-06T03:01:15.412Z,3.14
2023-03-06T03:01:47.878Z,2.95
2023-03-06T03:02:19.694Z,3.02
2023-03-06T03:02:51.635Z,3.10
2023-03-06T03:03:23.373Z,3.16
2023-03-06T03:03:57.120Z,3.11
2023-03-06T03:04:28.839Z,3.17
2023-03-06T03:05:00.558Z,3.10
2023-03-06T03:05:32.689Z,3.14
2023-03-06T03:06:06.008Z,3.18
2023-03-06T03:06:37.754Z,3.20
2023-03-06T03:07:09.455Z,3.20
2023-03-06T03:07:41.362Z,3.16
2023-03-06T03:08:13.288Z,3.21
2023-03-06T03:08:45.015Z,3.21
2023-03-06T03:09:16.698Z,3.24
2023-03-06T03:09:48.464Z,3.19
2023-03-06T03:10:20.305Z,3.24
2023-03-06T03:10:52.034Z,3.28
2023-03-06T03:11:23.706Z,3.29
2023-03-06T03:11:55.818Z,3.28
2023-03-06T03:12:28.816Z,3.28
2023-03-06T03:13:00.773Z,3.37
2023-03-06T03:13:32.826Z,3.31
2023-03-06T03:14:04.562Z,3.33
2023-03-06T03:14:36.360Z,3.37
2023-03-06T03:15:10.121Z,3.39
2023-03-06T03:15:41.976Z,3.42
2023-03-06T03:16:18.310Z,3.43
2023-03-06T03:16:50.062Z,3.51
2023-03-06T03:17:22.885Z,3.40
2023-03-06T03:17:54.597Z,3.42
2023-03-06T03:18:26.528Z,3.44
2023-03-06T03:18:58.212Z,3.47
2023-03-06T03:19:30.267Z,3.58
2023-03-06T03:20:01.972Z,3.58
2023-03-06T03:20:33.769Z,3.56
2023-03-06T03:21:10.468Z,3.60
2023-03-06T03:21:42.261Z,3.62
2023-03-06T03:22:13.991Z,3.64
2023-03-06T03:22:49.988Z,3.68
2023-03-06T03:23:22.220Z,3.68
2023-03-06T03:23:53.911Z,3.63
2023-03-06T03:24:25.867Z,3.68
2023-03-06T03:24:57.672Z,3.70
2023-03-06T03:25:29.533Z,3.73
2023-03-06T03:26:13.909Z,3.77
2023-03-06T03:26:45.660Z,3.77
2023-03-06T03:27:17.401Z,3.76
2023-03-06T03:27:49.099Z,3.79
2023-03-06T03:28:20.849Z,3.75
2023-03-06T03:28:52.531Z,3.79
2023-03-06T03:29:24.835Z,3.80
2023-03-06T03:30:00.552Z,3.73
2023-03-06T03:30:32.287Z,3.75
2023-03-06T03:31:09.431Z,3.84
2023-03-06T03:31:41.104Z,3.81
2023-03-06T03:32:12.825Z,3.78
2023-03-06T03:32:44.576Z,3.86
2023-03-06T03:33:16.305Z,3.84
2023-03-06T03:33:47.991Z,3.86
2023-03-06T03:34:19.648Z,3.85
2023-03-06T03:34:51.673Z,3.86
2023-03-06T03:35:23.409Z,3.85
2023-03-06T03:35:59.521Z,3.86
2023-03-06T03:36:31.294Z,3.86
2023-03-06T03:37:03.027Z,3.85
2023-03-06T03:37:34.897Z,3.78
2023-03-06T03:38:06.574Z,3.82
2023-03-06T03:38:38.274Z,3.86
2023-03-06T03:39:10.311Z,3.86
2023-03-06T03:39:42.106Z,3.88
2023-03-06T03:40:13.932Z,3.87
2023-03-06T03:40:45.680Z,3.82
2023-03-06T03:41:17.376Z,3.82
2023-03-06T03:41:49.148Z,3.82
2023-03-06T03:42:20.952Z,3.87
2023-03-06T03:42:52.796Z,3.83
2023-03-06T03:43:24.486Z,3.84
2023-03-06T03:43:56.164Z,3.84
2023-03-06T03:44:27.855Z,3.91
2023-03-06T03:44:59.583Z,3.85
2023-03-06T03:45:31.296Z,3.82
2023-03-06T03:46:03.120Z,3.88
2023-03-06T03:46:34.943Z,3.89
2023-03-06T03:47:06.860Z,3.82
2023-03-06T03:47:38.792Z,3.88
2023-03-06T03:48:10.661Z,3.88
2023-03-06T03:48:42.481Z,3.80
2023-03-06T03:49:15.131Z,3.69
2023-03-06T03:49:46.840Z,3.80
2023-03-06T03:50:18.960Z,3.80
2023-03-06T03:50:50.700Z,3.82
2023-03-06T03:51:22.704Z,3.76
2023-03-06T03:51:54.381Z,3.69
2023-03-06T03:52:26.317Z,3.70
2023-03-06T03:52:58.018Z,3.74
2023-03-06T03:53:29.717Z,3.75
2023-03-06T03:54:01.513Z,3.76
2023-03-06T03:54:33.847Z,3.77
2023-03-06T03:55:06.147Z,3.77
2023-03-06T03:55:37.932Z,3.74
2023-03-06T03:56:10.662Z,3.76
2023-03-06T03:56:42.453Z,3.79
2023-03-06T03:57:14.242Z,3.72
2023-03-06T03:57:45.983Z,3.75
2023-03-06T03:58:17.670Z,3.69
2023-03-06T03:58:49.425Z,3.72
2023-03-06T03:59:21.226Z,3.70
2023-03-06T03:59:53.174Z,3.69
2023-03-06T04:00:24.950Z,3.66
2023-03-06T04:00:56.705Z,3.63
2023-03-06T04:01:28.498Z,3.60
2023-03-06T04:02:00.286Z,3.59
2023-03-06T04:02:31.963Z,3.63
2023-03-06T04:03:03.788Z,3.59
2023-03-06T04:03:36.023Z,3.66
2023-03-06T04:04:08.382Z,3.64
2023-03-06T04:04:40.145Z,3.64
2023-03-06T04:05:14.768Z,3.63
2023-03-06T04:05:46.666Z,3.61
2023-03-06T04:06:18.510Z,3.63
2023-03-06T04:06:50.203Z,3.57
2023-03-06T04:07:21.951Z,3.63
2023-03-06T04:07:53.675Z,3.64
2023-03-06T04:08:26.762Z,3.65
2023-03-06T04:08:59.116Z,3.65
2023-03-06T04:09:30.820Z,3.64
2023-03-06T04:10:02.501Z,3.64
2023-03-06T04:10:34.489Z,3.70
2023-03-06T04:11:06.766Z,3.69
2023-03-06T04:11:38.885Z,3.71
2023-03-06T04:12:10.689Z,3.71
2023-03-06T04:12:42.607Z,3.69
2023-03-06T04:13:14.452Z,3.72
2023-03-06T04:13:46.364Z,3.71
2023-03-06T04:14:18.069Z,3.68
2023-03-06T04:14:50.040Z,3.70
2023-03-06T04:15:21.729Z,3.71
2023-03-06T04:15:54.617Z,3.72
2023-03-06T04:16:26.426Z,3.73
2023-03-06T04:16:58.195Z,3.67
2023-03-06T04:17:29.944Z,3.69
2023-03-06T04:18:01.747Z,3.65
2023-03-06T04:18:33.504Z,3.75
2023-03-06T04:19:05.224Z,3.72
2023-03-06T04:19:36.952Z,3.72
2023-03-06T04:20:09.425Z,3.75
2023-03-06T04:20:41.324Z,3.80
2023-03-06T04:21:13.372Z,3.74
2023-03-06T04:21:45.169Z,3.78
2023-03-06T04:22:16.820Z,3.80
2023-03-06T04:22:48.744Z,3.84
2023-03-06T04:23:20.893Z,3.82
2023-03-06T04:23:52.558Z,3.86
2023-03-06T04:24:25.128Z,3.85
2023-03-06T04:24:56.814Z,3.87
2023-03-06T04:25:29.575Z,3.84
2023-03-06T04:26:01.333Z,3.85
2023-03-06T04:26:33.062Z,3.82
2023-03-06T04:27:05.109Z,3.85
2023-03-06T04:27:38.172Z,3.90
2023-03-06T04:28:10.249Z,3.85
2023-03-06T04:28:41.972Z,3.86
2023-03-06T04:29:13.642Z,3.86
2023-03-06T04:29:45.364Z,3.86
2023-03-06T04:30:17.121Z,3.85
2023-03-06T04:30:48.910Z,3.87
2023-03-06T04:31:20.699Z,3.89
2023-03-06T04:31:52.438Z,3.91
2023-03-06T04:32:24.421Z,3.91
2023-03-06T04:32:56.093Z,3.89
2023-03-06T04:33:27.921Z,3.90
2023-03-06T04:33:59.717Z,3.92
2023-03-06T04:34:31.591Z,3.87
2023-03-06T04:35:03.339Z,3.90
2023-03-06T04:35:35.748Z,3.91
2023-03-06T04:36:07.792Z,3.93
2023-03-06T04:36:41.545Z,3.95
2023-03-06T04:37:25.092Z,3.95
2023-03-06T04:37:57.269Z,3.97
2023-03-06T04:38:28.964Z,3.98
2023-03-06T04:39:02.096Z,3.99
2023-03-06T04:39:33.800Z,4.01
2023-03-06T04:40:06.022Z,3.86
2023-03-06T04:40:38.247Z,3.95
2023-03-06T04:41:10.066Z,3.98
2023-03-06T04:41:42.704Z,3.96
2023-03-06T04:42:14.734Z,4.03
2023-03-06T04:42:46.423Z,4.04
2023-03-06T04:43:18.242Z,4.07
2023-03-06T04:43:50.359Z,4.04
2023-03-06T04:44:22.059Z,3.97
2023-03-06T04:44:53.785Z,4.02
2023-03-06T04:45:27.178Z,3.97
2023-03-06T04:45:59.008Z,4.02
2023-03-06T04:46:30.702Z,4.02
2023-03-06T04:47:02.390Z,4.06
2023-03-06T04:47:34.085Z,3.94
2023-03-06T04:48:06.083Z,4.04
2023-03-06T04:48:38.016Z,3.94
2023-03-06T04:49:09.990Z,3.97
2023-03-06T04:49:43.188Z,3.99
2023-03-06T04:50:16.673Z,4.02
2023-03-06T04:50:48.425Z,3.99
2023-03-06T04:51:20.164Z,3.98
2023-03-06T04:51:51.842Z,4.02
2023-03-06T04:52:23.557Z,3.99
2023-03-06T04:52:55.294Z,4.02
2023-03-06T04:53:26.996Z,4.05
2023-03-06T04:53:58.776Z,4.05
2023-03-06T04:54:30.529Z,4.03
2023-03-06T04:55:08.536Z,4.02
2023-03-06T04:55:40.232Z,4.04
2023-03-06T04:56:11.881Z,4.04
2023-03-06T04:56:43.557Z,4.10
2023-03-06T04:57:16.113Z,4.13
2023-03-06T04:57:48.103Z,4.10
2023-03-06T04:58:20.882Z,4.08
2023-03-06T04:58:52.538Z,4.11
2023-03-06T04:59:24.214Z,4.13
2023-03-06T04:59:55.898Z,4.09
2023-03-06T05:00:30.686Z,4.12
2023-03-06T05:01:03.103Z,4.10
2023-03-06T05:01:34.847Z,4.07
2023-03-06T05:02:06.605Z,4.13
2023-03-06T05:02:38.305Z,4.17
2023-03-06T05:03:12.598Z,4.29
2023-03-06T05:03:44.283Z,4.49
2023-03-06T05:04:15.997Z,4.51
2023-03-06T05:04:47.676Z,4.46
2023-03-06T05:05:19.443Z,4.55
2023-03-06T05:05:51.116Z,4.66
2023-03-06T05:06:22.823Z,4.67
2023-03-06T05:06:54.499Z,4.77
2023-03-06T05:07:26.260Z,4.78
2023-03-06T05:07:58.006Z,4.86
2023-03-06T05:08:29.787Z,4.64
2023-03-06T05:09:01.500Z,4.61
2023-03-06T05:09:34.570Z,4.64
2023-03-06T05:10:07.158Z,4.65
2023-03-06T05:10:38.871Z,4.64
2023-03-06T05:11:10.591Z,4.57
2023-03-06T05:11:42.290Z,4.58
2023-03-06T05:12:24.406Z,4.49
2023-03-06T05:12:56.090Z,4.47
2023-03-06T05:13:28.356Z,4.50
2023-03-06T05:14:00.045Z,4.52
2023-03-06T05:14:33.100Z,4.51
2023-03-06T05:15:07.527Z,4.48
2023-03-06T05:15:42.164Z,4.45
2023-03-06T05:16:14.036Z,4.48
2023-03-06T05:16:45.920Z,4.52
2023-03-06T05:17:17.826Z,4.49
2023-03-06T05:17:49.682Z,4.49
2023-03-06T05:18:21.945Z,4.51
2023-03-06T05:18:53.685Z,4.45
2023-03-06T05:19:25.445Z,4.39
2023-03-06T05:19:57.143Z,4.37
2023-03-06T05:20:28.884Z,4.37
2023-03-06T05:21:00.877Z,4.42
2023-03-06T05:21:32.567Z,4.43
2023-03-06T05:22:04.259Z,4.50
2023-03-06T05:22:36.159Z,4.67
2023-03-06T05:23:07.861Z,4.74
2023-03-06T05:23:39.746Z,4.86
2023-03-06T05:24:11.545Z,4.98
2023-03-06T05:24:43.278Z,5.10
2023-03-06T05:25:16.364Z,5.15
2023-03-06T05:25:48.053Z,5.25
2023-03-06T05:26:20.054Z,5.24
2023-03-06T05:26:51.864Z,5.18
2023-03-06T05:27:23.628Z,5.09
2023-03-06T05:27:55.373Z,5.09
2023-03-06T05:28:28.703Z,5.07
2023-03-06T05:29:00.519Z,5.05
2023-03-06T05:29:32.209Z,4.99
2023-03-06T05:30:04.469Z,4.94
2023-03-06T05:30:36.283Z,4.97
2023-03-06T05:31:08.510Z,4.95
2023-03-06T05:31:40.249Z,4.90
2023-03-06T05:32:12.107Z,4.93
2023-03-06T05:32:44.192Z,4.91
2023-03-06T05:33:16.047Z,4.90
2023-03-06T05:33:47.742Z,4.82
2023-03-06T05:34:19.439Z,4.79
2023-03-06T05:34:51.154Z,4.83
2023-03-06T05:35:23.657Z,4.74
2023-03-06T05:35:55.537Z,4.70
2023-03-06T05:36:27.231Z,4.68
2023-03-06T05:37:01.813Z,4.64
2023-03-06T05:37:33.706Z,4.63
2023-03-06T05:38:05.439Z,4.61
2023-03-06T05:38:37.203Z,4.55
2023-03-06T05:39:09.597Z,4.43
2023-03-06T05:39:41.452Z,4.43
2023-03-06T05:40:14.512Z,4.42
2023-03-06T05:40:46.363Z,4.39
2023-03-06T05:41:18.148Z,4.30
2023-03-06T05:41:49.846Z,4.29
2023-03-06T05:42:21.637Z,4.29
2023-03-06T05:42:53.403Z,4.24
2023-03-06T05:43:25.110Z,4.21
2023-03-06T05:43:57.054Z,4.17
2023-03-06T05:44:36.018Z,4.14
2023-03-06T05:45:08.336Z,4.14
2023-03-06T05:45:40.814Z,4.06
2023-03-06T05:46:12.668Z,4.05
2023-03-06T05:46:44.449Z,3.99
2023-03-06T05:47:16.204Z,3.99
2023-03-06T05:47:47.965Z,3.90
2023-03-06T05:48:19.654Z,3.95
2023-03-06T05:48:54.125Z,3.97
2023-03-06T05:49:26.692Z,4.11
2023-03-06T05:49:58.713Z,4.10
2023-03-06T05:50:30.398Z,4.07
2023-03-06T05:51:03.535Z,4.08
2023-03-06T05:51:35.265Z,4.12
2023-03-06T05:52:08.161Z,4.14
2023-03-06T05:52:40.166Z,4.13
2023-03-06T05:53:11.966Z,4.13
2023-03-06T05:53:43.754Z,4.24
2023-03-06T05:54:15.508Z,4.15
2023-03-06T05:54:51.256Z,4.27
2023-03-06T05:55:24.475Z,4.26
2023-03-06T05:56:01.443Z,4.28
2023-03-06T05:56:33.890Z,4.32
2023-03-06T05:57:06.594Z,4.36
2023-03-06T05:57:38.418Z,4.37
2023-03-06T05:58:10.264Z,4.38
2023-03-06T05:58:42.083Z,4.46
2023-03-06T05:59:13.764Z,4.51
2023-03-06T05:59:46.487Z,4.54
2023-03-06T06:00:18.914Z,4.60
2023-03-06T06:00:52.142Z,4.65
2023-03-06T06:01:25.450Z,4.68
2023-03-06T06:01:57.865Z,4.66
2023-03-06T06:02:29.668Z,4.66
2023-03-06T06:03:02.243Z,4.69
2023-03-06T06:03:33.936Z,4.68
2023-03-06T06:04:05.660Z,4.68
2023-03-06T06:04:37.342Z,4.72
2023-03-06T06:05:12.904Z,4.68
2023-03-06T06:05:44.892Z,4.51
2023-03-06T06:06:16.686Z,4.54
2023-03-06T06:06:52.731Z,4.56
2023-03-06T06:07:24.419Z,4.56
2023-03-06T06:07:56.143Z,4.41
2023-03-06T06:08:27.884Z,4.57
2023-03-06T06:09:01.110Z,4.66
2023-03-06T06:09:32.884Z,4.65
2023-03-06T06:10:06.780Z,4.67
2023-03-06T06:10:39.581Z,4.52
2023-03-06T06:11:13.116Z,4.53
2023-03-06T06:11:45.931Z,4.55
2023-03-06T06:12:21.741Z,4.58
2023-03-06T06:12:53.414Z,4.64
2023-03-06T06:13:25.113Z,4.53
2023-03-06T06:13:56.869Z,4.60
2023-03-06T06:14:29.400Z,4.62
2023-03-06T06:15:01.170Z,4.67
2023-03-06T06:15:33.868Z,4.64
2023-03-06T06:16:22.689Z,4.72
2023-03-06T06:16:54.903Z,4.74
2023-03-06T06:17:26.648Z,4.74
2023-03-06T06:17:58.518Z,4.80
2023-03-06T06:18:31.251Z,4.81
2023-03-06T06:19:03.178Z,4.78
2023-03-06T06:19:35.247Z,4.73
2023-03-06T06:20:07.654Z,4.78
2023-03-06T06:20:39.621Z,4.76
2023-03-06T06:21:13.462Z,4.76
2023-03-06T06:21:59.025Z,4.74
2023-03-06T06:22:33.834Z,4.76
2023-03-06T06:23:06.531Z,4.67
2023-03-06T06:23:38.449Z,4.70
2023-03-06T06:24:10.285Z,4.66
2023-03-06T06:24:42.290Z,4.70
2023-03-06T06:25:14.840Z,4.70
2023-03-06T06:25:46.680Z,4.72
2023-03-06T06:26:18.359Z,4.73
2023-03-06T06:26:52.080Z,4.77
2023-03-06T06:27:23.774Z,4.78
2023-03-06T06:27:56.683Z,4.74
2023-03-06T06:28:29.726Z,4.78
2023-03-06T06:29:03.438Z,4.80
2023-03-06T06:29:35.634Z,4.81
2023-03-06T06:30:10.823Z,4.83
2023-03-06T06:30:43.082Z,4.85
2023-03-06T06:31:15.166Z,4.84
2023-03-06T06:31:54.151Z,4.87
2023-03-06T06:32:27.402Z,4.92
2023-03-06T06:33:00.028Z,5.00
2023-03-06T06:33:32.363Z,5.05
2023-03-06T06:34:09.371Z,5.08
2023-03-06T06:34:41.058Z,5.16
2023-03-06T06:35:12.825Z,5.23
2023-03-06T06:35:44.526Z,5.48
2023-03-06T06:36:18.527Z,5.82
2023-03-06T06:36:53.529Z,6.11
2023-03-06T06:37:26.160Z,6.36
2023-03-06T06:37:57.904Z,6.43
2023-03-06T06:38:29.596Z,6.68
2023-03-06T06:39:01.635Z,7.04
2023-03-06T06:39:33.371Z,6.83
2023-03-06T06:40:05.987Z,6.70
2023-03-06T06:40:37.645Z,6.62
2023-03-06T06:41:38.777Z,7.17
2023-03-06T06:42:28.156Z,7.96
2023-03-06T06:42:56.579Z,8.33
2023-03-06T06:43:28.418Z,8.39
2023-03-06T06:44:00.957Z,8.80
2023-03-06T06:44:32.634Z,9.14
2023-03-06T06:45:05.432Z,9.23
2023-03-06T06:45:37.677Z,8.94
2023-03-06T06:46:38.816Z,8.48
2023-03-06T06:47:24.014Z,7.90
2023-03-06T06:47:52.682Z,7.77
2023-03-06T06:48:24.626Z,8.27
2023-03-06T06:48:56.302Z,8.94
2023-03-06T06:49:28.214Z,9.13
2023-03-06T06:50:00.071Z,8.58
2023-03-06T06:50:32.027Z,8.26
2023-03-06T06:51:04.510Z,8.04
2023-03-06T06:51:37.644Z,7.94
2023-03-06T06:52:10.403Z,7.82
2023-03-06T06:52:42.280Z,7.78
2023-03-06T06:53:14.409Z,8.30
2023-03-06T06:53:46.169Z,8.99
2023-03-06T06:54:18.803Z,9.60
2023-03-06T06:54:50.907Z,9.74
2023-03-06T06:55:25.458Z,10.22
2023-03-06T06:55:59.429Z,10.42
2023-03-06T06:56:31.225Z,10.70
2023-03-06T06:57:02.956Z,10.39
2023-03-06T06:57:34.712Z,9.85
2023-03-06T06:58:06.424Z,9.48
2023-03-06T06:58:38.074Z,9.09
2023-03-06T06:59:16.723Z,8.83
2023-03-06T06:59:50.198Z,8.54
2023-03-06T07:00:27.337Z,8.28
2023-03-06T07:01:14.508Z,8.02
2023-03-06T07:01:47.652Z,7.80
2023-03-06T07:02:19.542Z,7.65
2023-03-06T07:02:51.516Z,7.44
2023-03-06T07:03:23.818Z,7.23
2023-03-06T07:03:56.836Z,6.99
2023-03-06T07:04:30.793Z,6.75
2023-03-06T07:05:05.098Z,6.68
2023-03-06T07:05:37.220Z,6.76
2023-03-06T07:06:09.335Z,6.76
2023-03-06T07:06:41.778Z,6.74
2023-03-06T07:07:13.534Z,6.69
2023-03-06T07:07:45.322Z,6.68
2023-03-06T07:08:17.014Z,6.63
2023-03-06T07:08:48.761Z,6.58
2023-03-06T07:09:20.548Z,6.52
2023-03-06T07:09:52.254Z,6.37
2023-03-06T07:10:23.943Z,5.92
2023-03-06T07:10:55.911Z,5.91
2023-03-06T07:11:27.572Z,5.87
2023-03-06T07:11:59.324Z,5.86
2023-03-06T07:12:32.929Z,5.94
2023-03-06T07:13:04.790Z,5.92
2023-03-06T07:13:36.605Z,5.97
2023-03-06T07:14:09.089Z,5.96
2023-03-06T07:14:42.631Z,5.89
2023-03-06T07:15:15.918Z,5.88
2023-03-06T07:15:47.677Z,5.84
2023-03-06T07:16:19.688Z,5.82
2023-03-06T07:16:51.466Z,5.91
2023-03-06T07:17:23.168Z,5.84
2023-03-06T07:17:55.056Z,5.77